Time,TemperatureF,DewpointF,PressureIn,WindDirection,WindDirectionDegrees,WindSpeedMPH,WindSpeedGustMPH,Humidity,HourlyPrecipIn,Conditions,Clouds,dailyrainin,SoftwareType,DateUTC
2013-06-15 00:05:00,63.3,54.9,29.99,SSW,200,2.0,2.0,74,0.00,,,0.00,Wunderground v.1.15,2013-06-15 04:05:00,
2013-06-15 00:10:00,62.8,54.4,29.99,NNW,333,1.0,3.0,74,0.00,,,0.00,Wunderground v.1.15,2013-06-15 04:10:00,
2013-06-15 00:16:00,61.8,54.2,29.99,South,184,2.0,2.0,76,0.00,,,0.00,Wunderground v.1.15,2013-06-15 04:16:00,
2013-06-15 00:20:00,61.3,54.0,29.99,NNW,345,2.0,4.0,77,0.00,,,0.00,Wunderground v.1.15,2013-06-15 04:20:00,
2013-06-15 00:26:00,60.6,54.0,29.99,NNE,19,1.0,3.0,79,0.00,,,0.00,Wunderground v.1.15,2013-06-15 04:26:00,
2013-06-15 00:31:00,60.0,53.8,29.99,NNE,20,3.0,5.0,80,0.00,,,0.00,Wunderground v.1.15,2013-06-15 04:31:00,
2013-06-15 00:41:00,59.0,53.5,29.99,NNE,22,4.0,4.0,82,0.00,,,0.00,Wunderground v.1.15,2013-06-15 04:41:00,
2013-06-15 00:51:00,58.2,53.1,29.99,NNE,26,3.0,4.0,83,0.00,,,0.00,Wunderground v.1.15,2013-06-15 04:51:00,
2013-06-15 00:56:00,57.9,52.8,29.99,NNE,26,3.0,3.0,83,0.00,,,0.00,Wunderground v.1.15,2013-06-15 04:56:00,
2013-06-15 01:01:00,57.4,52.6,29.99,NNW,335,3.0,4.0,84,0.00,,,0.00,Wunderground v.1.15,2013-06-15 05:01:00,
2013-06-15 01:06:00,57.0,52.2,30.00,NNW,327,3.0,4.0,84,0.00,,,0.00,Wunderground v.1.15,2013-06-15 05:06:00,
2013-06-15 01:11:00,56.5,51.7,30.00,NNW,327,2.0,2.0,84,0.00,,,0.00,Wunderground v.1.15,2013-06-15 05:11:00,
2013-06-15 01:16:00,56.1,51.3,29.99,NNW,327,3.0,3.0,84,0.00,,,0.00,Wunderground v.1.15,2013-06-15 05:16:00,
2013-06-15 01:26:00,55.5,51.1,29.98,NNW,327,3.0,4.0,85,0.00,,,0.00,Wunderground v.1.15,2013-06-15 05:26:00,
2013-06-15 01:31:00,55.2,51.1,29.98,NNW,327,3.0,3.0,86,0.00,,,0.00,Wunderground v.1.15,2013-06-15 05:31:00,
2013-06-15 01:41:00,54.9,51.1,29.98,NNW,327,3.0,3.0,87,0.00,,,0.00,Wunderground v.1.15,2013-06-15 05:41:00,
2013-06-15 01:46:00,54.9,51.1,29.98,NNW,327,4.0,5.0,87,0.00,,,0.00,Wunderground v.1.15,2013-06-15 05:46:00,
2013-06-15 01:56:00,54.7,50.6,29.98,NW,322,3.0,4.0,86,0.00,,,0.00,Wunderground v.1.15,2013-06-15 05:56:00,
2013-06-15 02:01:00,54.5,50.7,29.98,NW,322,1.0,2.0,87,0.00,,,0.00,Wunderground v.1.15,2013-06-15 06:01:00,
2013-06-15 02:10:00,54.2,50.4,29.97,NW,322,0.0,0.0,87,0.00,,,0.00,Wunderground v.1.15,2013-06-15 06:10:00,
2013-06-15 02:16:00,54.1,50.3,29.98,NW,322,0.0,1.0,87,0.00,,,0.00,Wunderground v.1.15,2013-06-15 06:16:00,
2013-06-15 02:26:00,54.1,50.6,29.99,WNW,303,3.0,4.0,88,0.00,,,0.00,Wunderground v.1.15,2013-06-15 06:26:00,
2013-06-15 02:31:00,54.1,50.3,29.99,WNW,303,4.0,5.0,87,0.00,,,0.00,Wunderground v.1.15,2013-06-15 06:31:00,
2013-06-15 02:36:00,54.1,50.6,29.99,WNW,303,4.0,5.0,88,0.00,,,0.00,Wunderground v.1.15,2013-06-15 06:36:00,
2013-06-15 02:45:00,54.1,50.6,29.99,WNW,303,3.0,3.0,88,0.00,,,0.00,Wunderground v.1.15,2013-06-15 06:45:00,
2013-06-15 02:51:00,54.1,50.6,29.99,WNW,303,3.0,3.0,88,0.00,,,0.00,Wunderground v.1.15,2013-06-15 06:51:00,
2013-06-15 02:56:00,54.0,50.5,29.99,WNW,303,3.0,3.0,88,0.00,,,0.00,Wunderground v.1.15,2013-06-15 06:56:00,
2013-06-15 03:05:00,54.0,50.5,29.99,WNW,303,1.0,3.0,88,0.00,,,0.00,Wunderground v.1.15,2013-06-15 07:05:00,
2013-06-15 03:11:00,54.1,50.6,30.00,WNW,303,2.0,2.0,88,0.00,,,0.00,Wunderground v.1.15,2013-06-15 07:11:00,
2013-06-15 03:21:00,54.3,50.8,30.01,WNW,303,2.0,3.0,88,0.00,,,0.00,Wunderground v.1.15,2013-06-15 07:21:00,
2013-06-15 03:26:00,54.3,50.5,30.00,WNW,303,3.0,3.0,87,0.00,,,0.00,Wunderground v.1.15,2013-06-15 07:26:00,
2013-06-15 03:35:00,54.0,50.2,30.00,WNW,303,2.0,3.0,87,0.00,,,0.00,Wunderground v.1.15,2013-06-15 07:35:00,
2013-06-15 03:46:00,54.0,50.2,30.00,WNW,303,3.0,3.0,87,0.00,,,0.00,Wunderground v.1.15,2013-06-15 07:46:00,
2013-06-15 03:56:00,54.2,50.1,30.00,WNW,303,2.0,4.0,86,0.00,,,0.00,Wunderground v.1.15,2013-06-15 07:56:00,
2013-06-15 04:01:00,54.3,49.9,30.00,WNW,303,2.0,2.0,85,0.00,,,0.00,Wunderground v.1.15,2013-06-15 08:01:00,
2013-06-15 04:10:00,54.5,50.1,29.99,WNW,303,1.0,1.0,85,0.00,,,0.00,Wunderground v.1.15,2013-06-15 08:10:00,
2013-06-15 04:16:00,54.6,49.9,29.99,WNW,303,0.0,1.0,84,0.00,,,0.00,Wunderground v.1.15,2013-06-15 08:16:00,
2013-06-15 04:21:00,54.7,50.0,29.99,WNW,303,0.0,0.0,84,0.00,,,0.00,Wunderground v.1.15,2013-06-15 08:21:00,
2013-06-15 04:31:00,55.0,50.3,29.99,WNW,303,0.0,0.0,84,0.00,,,0.00,Wunderground v.1.15,2013-06-15 08:31:00,
2013-06-15 04:40:00,54.9,50.2,29.99,WNW,303,0.0,0.0,84,0.00,,,0.00,Wunderground v.1.15,2013-06-15 08:40:00,
2013-06-15 04:46:00,54.8,50.4,29.99,WNW,303,0.0,0.0,85,0.00,,,0.00,Wunderground v.1.15,2013-06-15 08:46:00,
2013-06-15 04:56:00,54.3,50.2,29.98,WNW,303,0.0,0.0,86,0.00,,,0.00,Wunderground v.1.15,2013-06-15 08:56:00,
2013-06-15 05:06:00,54.3,50.5,29.98,WNW,303,0.0,0.0,87,0.00,,,0.00,Wunderground v.1.15,2013-06-15 09:06:00,
2013-06-15 05:16:00,54.6,50.8,29.98,WNW,303,0.0,0.0,87,0.00,,,0.00,Wunderground v.1.15,2013-06-15 09:16:00,
2013-06-15 05:25:00,54.9,50.8,29.99,WNW,303,0.0,0.0,86,0.00,,,0.00,Wunderground v.1.15,2013-06-15 09:25:00,
2013-06-15 05:31:00,55.0,51.2,29.99,WNW,303,0.0,0.0,87,0.00,,,0.00,Wunderground v.1.15,2013-06-15 09:31:00,
2013-06-15 05:40:00,55.0,51.2,30.00,WNW,303,1.0,1.0,87,0.00,,,0.00,Wunderground v.1.15,2013-06-15 09:40:00,
2013-06-15 05:46:00,55.1,51.3,30.00,WNW,303,1.0,1.0,87,0.00,,,0.00,Wunderground v.1.15,2013-06-15 09:46:00,
2013-06-15 05:55:00,55.4,51.3,30.00,WNW,303,0.0,1.0,86,0.00,,,0.00,Wunderground v.1.15,2013-06-15 09:55:00,
2013-06-15 06:01:00,55.5,51.4,30.00,WNW,303,0.0,0.0,86,0.00,,,0.00,Wunderground v.1.15,2013-06-15 10:01:00,
2013-06-15 06:11:00,55.8,51.7,30.01,WNW,303,0.0,0.0,86,0.00,,,0.00,Wunderground v.1.15,2013-06-15 10:11:00,
2013-06-15 06:21:00,55.9,51.8,30.01,WNW,303,0.0,0.0,86,0.00,,,0.00,Wunderground v.1.15,2013-06-15 10:21:00,
2013-06-15 06:31:00,56.0,51.9,30.01,WNW,303,0.0,0.0,86,0.00,,,0.00,Wunderground v.1.15,2013-06-15 10:31:00,
2013-06-15 06:40:00,56.0,51.9,30.02,WNW,303,0.0,0.0,86,0.00,,,0.00,Wunderground v.1.15,2013-06-15 10:40:00,
2013-06-15 06:51:00,56.4,52.9,30.02,WNW,303,0.0,0.0,88,0.00,,,0.00,Wunderground v.1.15,2013-06-15 10:51:00,
2013-06-15 07:00:00,56.6,53.1,30.02,WNW,303,0.0,0.0,88,0.00,,,0.00,Wunderground v.1.15,2013-06-15 11:00:00,
2013-06-15 07:11:00,56.7,53.2,30.02,WNW,303,0.0,0.0,88,0.00,,,0.00,Wunderground v.1.15,2013-06-15 11:11:00,
2013-06-15 07:21:00,56.8,53.0,30.02,WNW,303,0.0,0.0,87,0.00,,,0.00,Wunderground v.1.15,2013-06-15 11:21:00,
2013-06-15 07:31:00,57.0,53.2,30.02,NW,325,0.0,0.0,87,0.00,,,0.00,Wunderground v.1.15,2013-06-15 11:31:00,
2013-06-15 07:36:00,57.1,53.3,30.02,NW,325,0.0,0.0,87,0.00,,,0.00,Wunderground v.1.15,2013-06-15 11:36:00,
2013-06-15 07:46:00,57.4,53.2,30.02,NW,325,0.0,0.0,86,0.00,,,0.00,Wunderground v.1.15,2013-06-15 11:46:00,
2013-06-15 07:51:00,57.6,53.4,30.02,NW,325,0.0,0.0,86,0.00,,,0.00,Wunderground v.1.15,2013-06-15 11:51:00,
2013-06-15 08:01:00,58.1,53.9,30.02,NW,325,0.0,0.0,86,0.00,,,0.00,Wunderground v.1.15,2013-06-15 12:01:00,
2013-06-15 08:11:00,58.5,54.0,30.02,ESE,115,1.0,2.0,85,0.00,,,0.00,Wunderground v.1.15,2013-06-15 12:11:00,
2013-06-15 08:21:00,58.9,54.4,30.02,SE,129,2.0,2.0,85,0.00,,,0.00,Wunderground v.1.15,2013-06-15 12:21:00,
2013-06-15 08:31:00,59.3,54.5,30.02,SE,128,2.0,2.0,84,0.00,,,0.00,Wunderground v.1.15,2013-06-15 12:31:00,
2013-06-15 08:36:00,59.5,54.7,30.01,SE,128,1.0,2.0,84,0.00,,,0.00,Wunderground v.1.15,2013-06-15 12:36:00,
2013-06-15 08:50:00,60.5,55.6,30.01,SE,128,1.0,1.0,84,0.00,,,0.00,Wunderground v.1.15,2013-06-15 12:50:00,
2013-06-15 08:56:00,61.3,56.1,30.01,SE,128,0.0,1.0,83,0.00,,,0.00,Wunderground v.1.15,2013-06-15 12:56:00,
2013-06-15 09:01:00,62.1,56.9,30.01,SE,128,0.0,0.0,83,0.00,,,0.00,Wunderground v.1.15,2013-06-15 13:01:00,
2013-06-15 09:11:00,63.4,57.5,30.01,SE,128,0.0,0.0,81,0.00,,,0.00,Wunderground v.1.15,2013-06-15 13:11:00,
2013-06-15 09:16:00,64.1,58.1,30.01,SE,128,0.0,1.0,81,0.00,,,0.00,Wunderground v.1.15,2013-06-15 13:16:00,
2013-06-15 09:26:00,65.4,58.4,30.01,SE,128,0.0,1.0,78,0.00,,,0.00,Wunderground v.1.15,2013-06-15 13:26:00,
2013-06-15 09:31:00,65.9,58.1,30.01,SE,128,0.0,1.0,76,0.00,,,0.00,Wunderground v.1.15,2013-06-15 13:31:00,
2013-06-15 09:41:00,67.2,58.2,30.01,West,265,0.0,0.0,73,0.00,,,0.00,Wunderground v.1.15,2013-06-15 13:41:00,
2013-06-15 09:46:00,67.4,57.7,30.00,West,270,1.0,1.0,71,0.00,,,0.00,Wunderground v.1.15,2013-06-15 13:46:00,
2013-06-15 09:56:00,67.8,58.8,30.00,West,270,0.0,0.0,73,0.00,,,0.00,Wunderground v.1.15,2013-06-15 13:56:00,
2013-06-15 10:01:00,68.1,57.9,30.00,West,270,0.0,0.0,70,0.00,,,0.00,Wunderground v.1.15,2013-06-15 14:01:00,
2013-06-15 10:10:00,68.5,58.3,29.99,West,270,0.0,0.0,70,0.00,,,0.00,Wunderground v.1.15,2013-06-15 14:10:00,
2013-06-15 10:16:00,68.6,58.0,29.99,NW,315,0.0,0.0,69,0.00,,,0.00,Wunderground v.1.15,2013-06-15 14:16:00,
2013-06-15 10:21:00,68.9,57.9,29.99,NW,315,0.0,0.0,68,0.00,,,0.00,Wunderground v.1.15,2013-06-15 14:21:00,
2013-06-15 10:31:00,69.2,56.5,29.99,NW,315,0.0,1.0,64,0.00,,,0.00,Wunderground v.1.15,2013-06-15 14:31:00,
2013-06-15 10:41:00,69.5,57.6,29.98,NW,315,0.0,0.0,66,0.00,,,0.00,Wunderground v.1.15,2013-06-15 14:41:00,
2013-06-15 10:50:00,70.0,58.1,29.98,NW,315,0.0,3.0,66,0.00,,,0.00,Wunderground v.1.15,2013-06-15 14:50:00,
2013-06-15 10:56:00,69.9,57.2,29.98,ESE,123,1.0,1.0,64,0.00,,,0.00,Wunderground v.1.15,2013-06-15 14:56:00,
2013-06-15 11:10:00,70.1,57.4,29.98,SE,129,2.0,2.0,64,0.00,,,0.00,Wunderground v.1.15,2013-06-15 15:10:00,
2013-06-15 11:16:00,70.0,56.8,29.97,SE,129,2.0,2.0,63,0.00,,,0.00,Wunderground v.1.15,2013-06-15 15:16:00,
2013-06-15 11:26:00,70.4,56.8,29.97,SE,140,2.0,3.0,62,0.00,,,0.00,Wunderground v.1.15,2013-06-15 15:26:00,
2013-06-15 11:36:00,71.1,57.0,29.96,South,173,3.0,4.0,61,0.00,,,0.00,Wunderground v.1.15,2013-06-15 15:36:00,
2013-06-15 11:46:00,71.5,57.3,29.95,ESE,115,2.0,4.0,61,0.00,,,0.00,Wunderground v.1.15,2013-06-15 15:46:00,
2013-06-15 11:56:00,71.7,57.5,29.95,SE,130,2.0,4.0,61,0.00,,,0.00,Wunderground v.1.15,2013-06-15 15:56:00,
2013-06-15 12:01:00,71.7,58.0,29.95,SE,130,1.0,1.0,62,0.00,,,0.00,Wunderground v.1.15,2013-06-15 16:01:00,
2013-06-15 12:10:00,72.4,58.2,29.96,SE,130,0.0,1.0,61,0.00,,,0.00,Wunderground v.1.15,2013-06-15 16:10:00,
2013-06-15 12:16:00,72.9,60.0,29.95,South,189,1.0,1.0,64,0.00,,,0.00,Wunderground v.1.15,2013-06-15 16:16:00,
2013-06-15 12:25:00,73.7,59.4,29.96,ESE,106,1.0,2.0,61,0.00,,,0.00,Wunderground v.1.15,2013-06-15 16:25:00,
2013-06-15 12:31:00,73.8,59.5,29.96,SE,134,2.0,3.0,61,0.00,,,0.00,Wunderground v.1.15,2013-06-15 16:31:00,
2013-06-15 12:41:00,74.3,60.0,29.95,West,265,1.0,1.0,61,0.00,,,0.00,Wunderground v.1.15,2013-06-15 16:41:00,
2013-06-15 12:51:00,75.6,60.7,29.95,North,5,1.0,1.0,60,0.00,,,0.00,Wunderground v.1.15,2013-06-15 16:51:00,
2013-06-15 13:00:00,76.2,59.9,29.95,NW,309,1.0,1.0,57,0.00,,,0.00,Wunderground v.1.15,2013-06-15 17:00:00,
2013-06-15 13:05:00,76.7,61.3,29.95,NW,308,1.0,2.0,59,0.00,,,0.00,Wunderground v.1.15,2013-06-15 17:05:00,
2013-06-15 13:15:00,76.3,60.4,29.95,West,259,4.0,6.0,58,0.00,,,0.00,Wunderground v.1.15,2013-06-15 17:15:00,
2013-06-15 13:21:00,76.2,62.2,29.94,WNW,287,4.0,6.0,62,0.00,,,0.00,Wunderground v.1.15,2013-06-15 17:21:00,
2013-06-15 13:30:00,76.5,62.0,29.94,West,259,4.0,5.0,61,0.00,,,0.00,Wunderground v.1.15,2013-06-15 17:30:00,
2013-06-15 13:36:00,76.4,62.4,29.95,WNW,289,4.0,4.0,62,0.00,,,0.00,Wunderground v.1.15,2013-06-15 17:36:00,
2013-06-15 13:41:00,76.0,61.6,29.95,WSW,252,3.0,4.0,61,0.00,,,0.00,Wunderground v.1.15,2013-06-15 17:41:00,
2013-06-15 13:46:00,75.8,61.8,29.95,WNW,296,2.0,2.0,62,0.00,,,0.00,Wunderground v.1.15,2013-06-15 17:46:00,
2013-06-15 13:56:00,75.2,61.3,29.95,West,268,3.0,4.0,62,0.00,,,0.00,Wunderground v.1.15,2013-06-15 17:56:00,
2013-06-15 14:01:00,74.9,61.5,29.95,West,263,4.0,5.0,63,0.00,,,0.00,Wunderground v.1.15,2013-06-15 18:01:00,
2013-06-15 14:11:00,74.4,60.5,29.95,WSW,246,4.0,5.0,62,0.00,,,0.00,Wunderground v.1.15,2013-06-15 18:11:00,
2013-06-15 14:16:00,74.5,61.5,29.95,West,277,4.0,5.0,64,0.00,,,0.00,Wunderground v.1.15,2013-06-15 18:16:00,
2013-06-15 14:21:00,74.7,61.3,29.95,NW,323,3.0,3.0,63,0.00,,,0.00,Wunderground v.1.15,2013-06-15 18:21:00,
2013-06-15 14:36:00,74.8,61.8,29.95,WNW,288,4.0,4.0,64,0.00,,,0.00,Wunderground v.1.15,2013-06-15 18:36:00,
2013-06-15 14:41:00,75.0,62.0,29.95,West,267,3.0,4.0,64,0.00,,,0.00,Wunderground v.1.15,2013-06-15 18:41:00,
2013-06-15 14:51:00,75.5,62.5,29.95,West,261,3.0,3.0,64,0.00,,,0.00,Wunderground v.1.15,2013-06-15 18:51:00,
2013-06-15 14:56:00,75.5,62.0,29.94,WSW,257,3.0,3.0,63,0.00,,,0.00,Wunderground v.1.15,2013-06-15 18:56:00,
2013-06-15 15:01:00,75.5,61.6,29.94,WNW,292,4.0,4.0,62,0.00,,,0.00,Wunderground v.1.15,2013-06-15 19:01:00,
2013-06-15 15:11:00,75.6,61.7,29.94,WSW,257,3.0,5.0,62,0.00,,,0.00,Wunderground v.1.15,2013-06-15 19:11:00,
2013-06-15 15:20:00,76.0,62.9,29.93,SW,234,2.0,2.0,64,0.00,,,0.00,Wunderground v.1.15,2013-06-15 19:20:00,
2013-06-15 15:26:00,76.1,61.7,29.93,WSW,257,3.0,4.0,61,0.00,,,0.00,Wunderground v.1.15,2013-06-15 19:26:00,
2013-06-15 15:31:00,76.2,62.7,29.94,WSW,252,4.0,4.0,63,0.00,,,0.00,Wunderground v.1.15,2013-06-15 19:31:00,
2013-06-15 15:36:00,76.3,62.3,29.93,West,260,3.0,6.0,62,0.00,,,0.00,Wunderground v.1.15,2013-06-15 19:36:00,
2013-06-15 15:46:00,76.4,61.5,29.92,WNW,299,3.0,5.0,60,0.00,,,0.00,Wunderground v.1.15,2013-06-15 19:46:00,
2013-06-15 15:51:00,76.3,61.9,29.93,West,259,4.0,5.0,61,0.00,,,0.00,Wunderground v.1.15,2013-06-15 19:51:00,
2013-06-15 16:01:00,76.3,62.8,29.93,West,263,3.0,3.0,63,0.00,,,0.00,Wunderground v.1.15,2013-06-15 20:01:00,
2013-06-15 16:11:00,76.4,61.0,29.93,WSW,254,3.0,6.0,59,0.00,,,0.00,Wunderground v.1.15,2013-06-15 20:11:00,
2013-06-15 16:16:00,76.2,61.3,29.93,WNW,294,4.0,6.0,60,0.00,,,0.00,Wunderground v.1.15,2013-06-15 20:16:00,
2013-06-15 16:25:00,76.3,61.9,29.92,West,276,3.0,4.0,61,0.00,,,0.00,Wunderground v.1.15,2013-06-15 20:25:00,
2013-06-15 16:31:00,76.4,62.0,29.92,WNW,288,3.0,5.0,61,0.00,,,0.00,Wunderground v.1.15,2013-06-15 20:31:00,
2013-06-15 16:41:00,76.4,62.0,29.92,WNW,292,4.0,7.0,61,0.00,,,0.00,Wunderground v.1.15,2013-06-15 20:41:00,
2013-06-15 16:51:00,76.4,62.0,29.92,West,266,4.0,4.0,61,0.00,,,0.00,Wunderground v.1.15,2013-06-15 20:51:00,
2013-06-15 17:00:00,76.5,61.1,29.91,WSW,238,4.0,4.0,59,0.00,,,0.00,Wunderground v.1.15,2013-06-15 21:00:00,
2013-06-15 17:06:00,76.4,60.5,29.91,WSW,241,4.0,5.0,58,0.00,,,0.00,Wunderground v.1.15,2013-06-15 21:06:00,
2013-06-15 17:16:00,76.3,61.4,29.91,West,280,5.0,6.0,60,0.00,,,0.00,Wunderground v.1.15,2013-06-15 21:16:00,
2013-06-15 17:26:00,76.4,62.0,29.90,West,259,4.0,5.0,61,0.00,,,0.00,Wunderground v.1.15,2013-06-15 21:26:00,
2013-06-15 17:36:00,76.3,61.4,29.90,WSW,250,3.0,12.0,60,0.00,,,0.00,Wunderground v.1.15,2013-06-15 21:36:00,
2013-06-15 17:46:00,75.8,61.4,29.90,WNW,286,5.0,5.0,61,0.00,,,0.00,Wunderground v.1.15,2013-06-15 21:46:00,
2013-06-15 17:56:00,75.6,62.1,29.90,West,280,4.0,9.0,63,0.00,,,0.00,Wunderground v.1.15,2013-06-15 21:56:00,
2013-06-15 18:01:00,75.3,61.8,29.90,WSW,242,6.0,7.0,63,0.00,,,0.00,Wunderground v.1.15,2013-06-15 22:01:00,
2013-06-15 18:11:00,75.0,62.4,29.90,West,263,5.0,5.0,65,0.00,,,0.00,Wunderground v.1.15,2013-06-15 22:11:00,
2013-06-15 18:20:00,74.8,63.1,29.90,West,271,5.0,5.0,67,0.00,,,0.00,Wunderground v.1.15,2013-06-15 22:20:00,
2013-06-15 18:26:00,74.8,61.8,29.90,WSW,239,4.0,9.0,64,0.00,,,0.00,Wunderground v.1.15,2013-06-15 22:26:00,
2013-06-15 18:31:00,74.6,61.6,29.90,West,273,5.0,5.0,64,0.00,,,0.00,Wunderground v.1.15,2013-06-15 22:31:00,
2013-06-15 18:40:00,74.2,61.7,29.90,WNW,293,4.0,4.0,65,0.00,,,0.00,Wunderground v.1.15,2013-06-15 22:40:00,
2013-06-15 18:46:00,74.0,61.0,29.90,WNW,288,4.0,4.0,64,0.00,,,0.00,Wunderground v.1.15,2013-06-15 22:46:00,
2013-06-15 18:56:00,73.5,61.4,29.90,WSW,255,5.0,6.0,66,0.00,,,0.00,Wunderground v.1.15,2013-06-15 22:56:00,
2013-06-15 19:06:00,73.2,61.6,29.90,WSW,251,4.0,6.0,67,0.00,,,0.00,Wunderground v.1.15,2013-06-15 23:06:00,
2013-06-15 19:11:00,73.1,61.5,29.90,West,263,4.0,4.0,67,0.00,,,0.00,Wunderground v.1.15,2013-06-15 23:11:00,
2013-06-15 19:21:00,72.9,61.7,29.89,SW,232,2.0,3.0,68,0.00,,,0.00,Wunderground v.1.15,2013-06-15 23:21:00,
2013-06-15 19:31:00,72.8,61.6,29.89,West,266,2.0,4.0,68,0.00,,,0.00,Wunderground v.1.15,2013-06-15 23:31:00,
2013-06-15 19:41:00,73.3,62.5,29.88,West,265,2.0,3.0,69,0.00,,,0.00,Wunderground v.1.15,2013-06-15 23:41:00,
2013-06-15 19:51:00,74.4,63.1,29.88,West,266,1.0,1.0,68,0.00,,,0.00,Wunderground v.1.15,2013-06-15 23:51:00,
2013-06-15 19:56:00,74.6,62.9,29.88,West,265,1.0,1.0,67,0.00,,,0.00,Wunderground v.1.15,2013-06-15 23:56:00,
2013-06-15 20:01:00,74.6,62.9,29.87,West,265,1.0,1.0,67,0.00,,,0.00,Wunderground v.1.15,2013-06-16 00:01:00,
2013-06-15 20:06:00,74.6,62.9,29.86,West,265,0.0,1.0,67,0.00,,,0.00,Wunderground v.1.15,2013-06-16 00:06:00,
2013-06-15 20:16:00,74.4,62.7,29.87,West,265,1.0,3.0,67,0.00,,,0.00,Wunderground v.1.15,2013-06-16 00:16:00,
2013-06-15 20:26:00,74.2,63.0,29.86,West,265,1.0,1.0,68,0.00,,,0.00,Wunderground v.1.15,2013-06-16 00:26:00,
2013-06-15 20:31:00,74.0,62.8,29.87,West,265,0.0,2.0,68,0.00,,,0.00,Wunderground v.1.15,2013-06-16 00:31:00,
2013-06-15 20:41:00,73.4,62.2,29.87,NNW,333,1.0,2.0,68,0.00,,,0.00,Wunderground v.1.15,2013-06-16 00:41:00,
2013-06-15 20:46:00,73.1,62.3,29.87,SSE,152,1.0,1.0,69,0.00,,,0.00,Wunderground v.1.15,2013-06-16 00:46:00,
2013-06-15 20:56:00,72.4,61.7,29.86,NNW,335,1.0,1.0,69,0.00,,,0.00,Wunderground v.1.15,2013-06-16 00:56:00,
2013-06-15 21:01:00,72.0,61.7,29.86,SW,234,1.0,1.0,70,0.00,,,0.00,Wunderground v.1.15,2013-06-16 01:01:00,
2013-06-15 21:06:00,71.7,61.8,29.86,NW,307,1.0,1.0,71,0.00,,,0.00,Wunderground v.1.15,2013-06-16 01:06:00,
2013-06-15 21:16:00,71.0,61.9,29.86,SSE,147,1.0,1.0,73,0.00,,,0.00,Wunderground v.1.15,2013-06-16 01:16:00,
2013-06-15 21:21:00,70.7,61.6,29.85,NW,314,0.0,0.0,73,0.00,,,0.00,Wunderground v.1.15,2013-06-16 01:21:00,
2013-06-15 21:26:00,70.4,61.7,29.85,WNW,284,0.0,0.0,74,0.00,,,0.00,Wunderground v.1.15,2013-06-16 01:26:00,
2013-06-15 21:36:00,69.9,61.6,29.85,NW,323,1.0,1.0,75,0.00,,,0.00,Wunderground v.1.15,2013-06-16 01:36:00,
2013-06-15 21:46:00,69.4,61.9,29.85,NNW,344,1.0,3.0,77,0.00,,,0.00,Wunderground v.1.15,2013-06-16 01:46:00,
2013-06-15 21:51:00,69.2,61.7,29.85,SW,230,1.0,1.0,77,0.00,,,0.00,Wunderground v.1.15,2013-06-16 01:51:00,
2013-06-15 21:56:00,68.9,61.4,29.85,North,349,1.0,1.0,77,0.00,,,0.00,Wunderground v.1.15,2013-06-16 01:56:00,
2013-06-15 22:05:00,68.6,61.5,29.85,NW,307,0.0,1.0,78,0.00,,,0.00,Wunderground v.1.15,2013-06-16 02:05:00,
2013-06-15 22:10:00,68.4,61.6,29.85,WNW,299,0.0,0.0,79,0.00,,,0.00,Wunderground v.1.15,2013-06-16 02:10:00,
2013-06-15 22:15:00,68.2,61.4,29.85,NW,321,0.0,2.0,79,0.00,,,0.00,Wunderground v.1.15,2013-06-16 02:15:00,
2013-06-15 22:21:00,68.0,61.6,29.85,NW,321,1.0,1.0,80,0.00,,,0.00,Wunderground v.1.15,2013-06-16 02:21:00,
2013-06-15 22:30:00,67.7,61.3,29.85,North,5,1.0,1.0,80,0.00,,,0.00,Wunderground v.1.15,2013-06-16 02:30:00,
2013-06-15 22:40:00,67.5,61.5,29.86,North,355,0.0,0.0,81,0.00,,,0.00,Wunderground v.1.15,2013-06-16 02:40:00,
2013-06-15 22:46:00,67.3,61.3,29.86,North,355,0.0,1.0,81,0.00,,,0.00,Wunderground v.1.15,2013-06-16 02:46:00,
2013-06-15 22:55:00,67.1,61.4,29.86,NNW,348,0.0,0.0,82,0.00,,,0.00,Wunderground v.1.15,2013-06-16 02:55:00,
2013-06-15 23:00:00,67.1,61.4,29.86,NNW,348,0.0,0.0,82,0.00,,,0.00,Wunderground v.1.15,2013-06-16 03:00:00,
2013-06-15 23:05:00,67.1,61.4,29.85,NNW,348,0.0,0.0,82,0.00,,,0.00,Wunderground v.1.15,2013-06-16 03:05:00,
2013-06-15 23:15:00,67.0,61.3,29.84,North,5,1.0,1.0,82,0.00,,,0.00,Wunderground v.1.15,2013-06-16 03:15:00,
2013-06-15 23:25:00,67.0,61.3,29.85,North,360,0.0,2.0,82,0.00,,,0.00,Wunderground v.1.15,2013-06-16 03:25:00,
2013-06-15 23:31:00,67.0,61.3,29.85,North,360,0.0,2.0,82,0.00,,,0.00,Wunderground v.1.15,2013-06-16 03:31:00,
2013-06-15 23:40:00,67.0,61.3,29.85,WSW,257,1.0,2.0,82,0.00,,,0.00,Wunderground v.1.15,2013-06-16 03:40:00,
2013-06-15 23:50:00,66.9,61.2,29.84,NW,325,1.0,1.0,82,0.00,,,0.00,Wunderground v.1.15,2013-06-16 03:50:00,